TimeCST,TemperatureF,Dew PointF,Humidity,Sea Level PressureIn,VisibilityMPH,Wind Direction,Wind SpeedMPH,Gust SpeedMPH,PrecipitationIn,Events,Conditions,WindDirDegrees,DateUTC
12:15 AM,-6.9,-10.3,85,30.16,10.0,Calm,Calm,-,N/A,,Clear,0,2013-01-01 06:15:00
12:35 AM,-8.0,-10.5,89,30.16,10.0,Calm,Calm,-,N/A,,Clear,0,2013-01-01 06:35:00
12:55 AM,-8.0,-11.0,86,30.16,10.0,Calm,Calm,-,N/A,,Clear,0,2013-01-01 06:55:00
1:15 AM,-8.9,-12.1,86,30.16,10.0,Calm,Calm,-,N/A,,Clear,0,2013-01-01 07:15:00
1:35 AM,-8.9,-12.5,84,30.16,10.0,Calm,Calm,-,N/A,,Clear,0,2013-01-01 07:35:00
1:55 AM,-7.4,-10.3,87,30.16,10.0,Calm,Calm,-,N/A,,Clear,0,2013-01-01 07:55:00
2:15 AM,-5.6,-8.9,86,30.16,10.0,Calm,Calm,-,N/A,,Clear,0,2013-01-01 08:15:00
2:35 AM,-9.2,-13.2,83,30.16,10.0,Calm,Calm,-,N/A,,Clear,0,2013-01-01 08:35:00
2:55 AM,-9.8,-13.7,83,30.16,10.0,Calm,Calm,-,N/A,,Clear,0,2013-01-01 08:55:00
3:15 AM,-10.1,-14.1,83,30.16,10.0,NW,3.5,-,N/A,,Clear,320,2013-01-01 09:15:00
3:35 AM,-6.9,-9.9,87,30.16,10.0,Calm,Calm,-,N/A,,Clear,0,2013-01-01 09:35:00
3:55 AM,-10.7,-14.6,83,30.16,10.0,Calm,Calm,-,N/A,,Clear,0,2013-01-01 09:55:00
4:15 AM,-11.6,-15.9,81,30.16,10.0,Calm,Calm,-,N/A,,Clear,0,2013-01-01 10:15:00
4:35 AM,-12.8,-17.1,81,30.17,10.0,Calm,Calm,-,N/A,,Clear,0,2013-01-01 10:35:00
4:55 AM,-13.5,-18.0,80,30.17,10.0,Calm,Calm,-,N/A,,Clear,0,2013-01-01 10:55:00
5:15 AM,-13.7,-18.2,80,30.17,10.0,Calm,Calm,-,N/A,,Clear,0,2013-01-01 11:15:00
5:35 AM,-13.9,-18.4,80,30.18,10.0,Calm,Calm,-,N/A,,Clear,0,2013-01-01 11:35:00
5:55 AM,-13.7,-18.2,80,30.19,10.0,Calm,Calm,-,N/A,,Clear,0,2013-01-01 11:55:00
6:15 AM,-14.8,-19.3,80,30.19,10.0,Calm,Calm,-,N/A,,Clear,0,2013-01-01 12:15:00
6:35 AM,-14.6,-18.9,81,30.19,10.0,Calm,Calm,-,N/A,,Clear,0,2013-01-01 12:35:00
6:55 AM,-14.8,-19.3,80,30.19,10.0,Calm,Calm,-,N/A,,Clear,0,2013-01-01 12:55:00
7:15 AM,-14.8,-19.3,80,30.19,10.0,Calm,Calm,-,N/A,,Clear,0,2013-01-01 13:15:00
7:35 AM,-15.5,-20.0,80,30.19,10.0,Calm,Calm,-,N/A,,Clear,0,2013-01-01 13:35:00
7:55 AM,-15.9,-21.1,77,30.19,10.0,Calm,Calm,-,N/A,,Clear,0,2013-01-01 13:55:00
8:15 AM,-14.3,-18.8,80,30.20,10.0,Calm,Calm,-,N/A,,Clear,0,2013-01-01 14:15:00
8:35 AM,-13.7,-18.6,79,30.20,10.0,Calm,Calm,-,N/A,,Clear,0,2013-01-01 14:35:00
9:12 AM,-7.6,-13.0,77,30.20,10.0,Calm,Calm,-,N/A,,Clear,0,2013-01-01 15:12:00
9:35 AM,-3.3,-7.2,83,30.20,10.0,Calm,Calm,-,N/A,,Clear,0,2013-01-01 15:35:00
9:55 AM,0.3,-4.0,82,30.20,10.0,WSW,4.6,-,N/A,,Clear,240,2013-01-01 15:55:00
10:15 AM,1.6,-2.7,82,30.19,10.0,WSW,3.5,-,N/A,,Clear,250,2013-01-01 16:15:00
10:35 AM,2.5,-2.0,81,30.18,10.0,WSW,4.6,-,N/A,,Clear,240,2013-01-01 16:35:00
10:55 AM,4.1,-0.6,81,30.16,10.0,WSW,4.6,-,N/A,,Clear,250,2013-01-01 16:55:00
11:15 AM,6.1,-0.0,76,30.15,10.0,West,5.8,-,N/A,,Clear,280,2013-01-01 17:15:00
11:35 AM,7.3,-1.3,68,30.14,10.0,West,6.9,-,N/A,,Clear,280,2013-01-01 17:35:00
11:55 AM,7.7,-1.3,67,30.14,10.0,West,6.9,-,N/A,,Clear,260,2013-01-01 17:55:00
12:15 PM,8.4,-1.7,64,30.13,10.0,West,8.1,-,N/A,,Clear,270,2013-01-01 18:15:00
12:35 PM,8.4,-1.8,63,30.13,10.0,West,6.9,-,N/A,,Clear,270,2013-01-01 18:35:00
12:55 PM,9.0,-2.2,61,30.11,10.0,West,10.4,-,N/A,,Clear,260,2013-01-01 18:55:00
1:15 PM,9.3,-2.6,59,30.11,10.0,West,6.9,-,N/A,,Clear,270,2013-01-01 19:15:00
1:35 PM,9.7,-3.1,56,30.10,10.0,WSW,8.1,-,N/A,,Clear,250,2013-01-01 19:35:00
1:55 PM,9.5,-3.1,57,30.10,10.0,West,9.2,-,N/A,,Clear,260,2013-01-01 19:55:00
2:15 PM,9.5,-4.0,54,30.10,10.0,West,11.5,18.4,N/A,,Clear,270,2013-01-01 20:15:00
2:35 PM,10.0,-4.0,53,30.10,10.0,West,10.4,-,N/A,,Clear,270,2013-01-01 20:35:00
2:55 PM,10.4,-4.4,51,30.11,10.0,West,9.2,-,N/A,,Clear,270,2013-01-01 20:55:00
3:15 PM,10.4,-4.4,51,30.10,10.0,West,5.8,-,N/A,,Clear,270,2013-01-01 21:15:00
3:35 PM,10.4,-4.9,50,30.10,10.0,West,4.6,-,N/A,,Clear,270,2013-01-01 21:35:00
3:55 PM,10.2,-4.4,52,30.10,10.0,West,5.8,-,N/A,,Clear,270,2013-01-01 21:55:00
4:15 PM,9.5,-4.2,54,30.10,10.0,West,4.6,-,N/A,,Clear,270,2013-01-01 22:15:00
4:35 PM,9.0,-4.0,56,30.10,10.0,West,3.5,-,N/A,,Clear,280,2013-01-01 22:35:00
4:55 PM,8.1,-4.0,58,30.10,10.0,Calm,Calm,-,N/A,,Clear,0,2013-01-01 22:55:00
5:15 PM,6.8,-4.0,61,30.10,10.0,West,4.6,-,N/A,,Clear,270,2013-01-01 23:15:00
5:35 PM,7.7,-4.5,57,30.10,10.0,West,8.1,-,N/A,,Clear,260,2013-01-01 23:35:00
5:55 PM,7.9,-3.3,60,30.10,10.0,WSW,6.9,-,N/A,,Mostly Cloudy,250,2013-01-01 23:55:00
6:15 PM,8.4,-0.9,66,30.09,10.0,West,4.6,-,N/A,Snow,Light Snow,260,2013-01-02 00:15:00
6:35 PM,8.6,-0.2,67,30.09,10.0,West,8.1,-,N/A,Snow,Light Snow,260,2013-01-02 00:35:00
6:55 PM,8.6,0.5,70,30.09,10.0,West,8.1,-,N/A,Snow,Light Snow,260,2013-01-02 00:55:00
7:15 PM,9.0,1.4,71,30.08,10.0,WSW,6.9,-,N/A,Snow,Light Snow,250,2013-01-02 01:15:00
7:35 PM,9.0,1.8,73,30.08,10.0,WSW,5.8,-,N/A,,Overcast,250,2013-01-02 01:35:00
7:55 PM,9.1,2.3,74,30.07,10.0,West,9.2,-,N/A,Snow,Light Snow,260,2013-01-02 01:55:00
8:15 PM,9.3,2.7,74,30.07,10.0,WSW,5.8,-,N/A,Snow,Light Snow,250,2013-01-02 02:15:00
8:35 PM,9.5,2.7,74,30.07,10.0,West,6.9,-,N/A,Snow,Light Snow,260,2013-01-02 02:35:00
8:55 PM,9.5,2.3,73,30.07,10.0,WSW,8.1,-,N/A,Snow,Light Snow,250,2013-01-02 02:55:00
9:15 PM,9.9,2.1,71,30.06,10.0,West,6.9,-,N/A,Snow,Light Snow,260,2013-01-02 03:15:00
9:35 PM,10.0,2.5,72,30.06,10.0,West,8.1,-,N/A,Snow,Light Snow,260,2013-01-02 03:35:00
9:55 PM,10.2,3.2,73,30.06,10.0,West,5.8,-,N/A,Snow,Light Snow,270,2013-01-02 03:55:00
10:15 PM,10.4,3.7,74,30.07,10.0,West,5.8,-,N/A,,Overcast,260,2013-01-02 04:15:00
10:35 PM,10.4,3.9,75,30.06,10.0,West,6.9,-,N/A,,Overcast,260,2013-01-02 04:35:00
10:55 PM,10.4,4.1,76,30.06,10.0,West,5.8,-,N/A,,Overcast,260,2013-01-02 04:55:00
11:15 PM,10.8,4.5,76,30.05,10.0,WSW,6.9,-,N/A,,Overcast,250,2013-01-02 05:15:00
11:35 PM,10.9,4.6,76,30.05,10.0,West,5.8,-,N/A,,Overcast,260,2013-01-02 05:35:00
11:55 PM,11.1,4.6,75,30.05,10.0,WSW,5.8,-,N/A,,Overcast,250,2013-01-02 05:55:00